createdAt,value
2023-02-13T00:00:00.574Z,13.75
2023-02-13T00:00:33.540Z,13.65
2023-02-13T00:01:07.929Z,14.52
2023-02-13T00:01:39.783Z,13.25
2023-02-13T00:02:11.675Z,14.60
2023-02-13T00:02:45.120Z,13.10
2023-02-13T00:03:17.087Z,14.50
2023-02-13T00:03:48.985Z,14.10
2023-02-13T00:04:21.813Z,13.82
2023-02-13T00:04:53.664Z,15.02
2023-02-13T00:05:25.729Z,14.35
2023-02-13T00:05:58.574Z,15.13
2023-02-13T00:06:30.633Z,14.20
2023-02-13T00:07:02.440Z,15.00
2023-02-13T00:07:34.281Z,16.17
2023-02-13T00:08:07.098Z,14.50
2023-02-13T00:08:38.905Z,13.68
2023-02-13T00:09:11.856Z,14.60
2023-02-13T00:09:43.725Z,17.15
2023-02-13T00:10:15.611Z,15.60
2023-02-13T00:10:47.580Z,15.20
2023-02-13T00:11:20.988Z,16.52
2023-02-13T00:11:52.769Z,15.07
2023-02-13T00:12:24.586Z,16.83
2023-02-13T00:12:57.499Z,14.68
2023-02-13T00:13:29.308Z,15.63
2023-02-13T00:14:01.118Z,14.27
2023-02-13T00:14:36.211Z,16.73
2023-02-13T00:15:08.776Z,16.52
2023-02-13T00:15:40.681Z,15.68
2023-02-13T00:16:14.890Z,14.02
2023-02-13T00:16:46.777Z,15.95
2023-02-13T00:17:18.626Z,14.00
2023-02-13T00:17:51.433Z,14.25
2023-02-13T00:18:23.295Z,16.75
2023-02-13T00:18:55.113Z,15.90
2023-02-13T00:19:27.982Z,15.63
2023-02-13T00:19:59.834Z,17.52
2023-02-13T00:20:31.882Z,15.95
2023-02-13T00:21:06.912Z,16.02
2023-02-13T00:21:38.749Z,24.55
2023-02-13T00:22:10.621Z,47.05
2023-02-13T00:22:43.366Z,38.40
2023-02-13T00:23:15.143Z,29.83
2023-02-13T00:23:46.944Z,33.30
2023-02-13T00:24:19.801Z,37.50
2023-02-13T00:24:51.611Z,29.27
2023-02-13T00:25:23.389Z,23.83
2023-02-13T00:25:55.198Z,19.58
2023-02-13T00:26:27.997Z,17.33
2023-02-13T00:26:59.828Z,17.65
2023-02-13T00:27:31.803Z,17.23
2023-02-13T00:28:04.690Z,15.80
2023-02-13T00:28:36.670Z,17.75
2023-02-13T00:29:08.499Z,17.13
2023-02-13T00:29:41.273Z,15.52
2023-02-13T00:30:14.564Z,15.70
2023-02-13T00:30:46.494Z,15.02
2023-02-13T00:31:22.565Z,17.02
2023-02-13T00:31:54.566Z,16.13
2023-02-13T00:32:26.853Z,15.68
2023-02-13T00:32:58.626Z,15.52
2023-02-13T00:33:31.424Z,16.35
2023-02-13T00:34:03.299Z,15.95
2023-02-13T00:34:35.395Z,16.33
2023-02-13T00:35:08.537Z,17.42
2023-02-13T00:35:40.421Z,15.27
2023-02-13T00:36:14.327Z,16.80
2023-02-13T00:36:47.378Z,16.65
2023-02-13T00:37:19.180Z,16.38
2023-02-13T00:37:50.958Z,15.95
2023-02-13T00:38:22.726Z,17.40
2023-02-13T00:38:56.478Z,14.07
2023-02-13T00:39:28.522Z,16.02
2023-02-13T00:40:00.370Z,15.95
2023-02-13T00:40:33.195Z,16.67
2023-02-13T00:41:05.749Z,14.73
2023-02-13T00:41:37.580Z,15.10
2023-02-13T00:42:10.324Z,14.60
2023-02-13T00:42:42.168Z,17.48
2023-02-13T00:43:14.014Z,15.80
2023-02-13T00:43:47.989Z,17.40
2023-02-13T00:44:19.833Z,16.33
2023-02-13T00:44:51.662Z,15.95
2023-02-13T00:45:24.564Z,15.63
2023-02-13T00:45:58.437Z,15.43
2023-02-13T00:46:31.742Z,16.17
2023-02-13T00:47:04.657Z,16.75
2023-02-13T00:47:36.480Z,15.00
2023-02-13T00:48:08.294Z,17.13
2023-02-13T00:48:41.273Z,19.25
2023-02-13T00:49:13.088Z,16.20
2023-02-13T00:49:45.194Z,17.45
2023-02-13T00:50:18.316Z,16.73
2023-02-13T00:50:51.636Z,15.90
2023-02-13T00:51:23.455Z,16.17
2023-02-13T00:51:55.239Z,14.52
2023-02-13T00:52:28.072Z,16.50
2023-02-13T00:52:59.869Z,17.20
2023-02-13T00:53:32.495Z,16.92
2023-02-13T00:54:05.559Z,14.00
2023-02-13T00:54:37.430Z,14.93
2023-02-13T00:55:09.345Z,17.50
2023-02-13T00:55:42.139Z,16.63
2023-02-13T00:56:13.957Z,16.40
2023-02-13T00:56:45.764Z,16.77
2023-02-13T00:57:18.512Z,15.70
2023-02-13T00:57:50.398Z,16.33
2023-02-13T00:58:23.310Z,16.40
2023-02-13T00:58:56.478Z,15.88
2023-02-13T00:59:28.366Z,15.43
2023-02-13T01:00:00.231Z,18.27
2023-02-13T01:00:33.044Z,16.27
2023-02-13T01:01:05.214Z,15.55
2023-02-13T01:01:39.530Z,16.90
2023-02-13T01:02:11.387Z,15.25
2023-02-13T01:02:43.183Z,16.33
2023-02-13T01:03:16.688Z,15.40
2023-02-13T01:03:48.579Z,16.95
2023-02-13T01:04:20.394Z,17.10
2023-02-13T01:04:53.209Z,18.30
2023-02-13T01:05:25.029Z,16.60
2023-02-13T01:05:57.650Z,15.20
2023-02-13T01:06:30.460Z,15.50
2023-02-13T01:07:05.360Z,14.95
2023-02-13T01:07:37.251Z,14.65
2023-02-13T01:08:10.175Z,18.10
2023-02-13T01:08:42.383Z,16.02
2023-02-13T01:09:14.211Z,14.98
2023-02-13T01:09:47.002Z,18.85
2023-02-13T01:10:18.878Z,16.80
2023-02-13T01:10:50.726Z,17.10
2023-02-13T01:11:26.505Z,18.58
2023-02-13T01:11:58.742Z,16.67
2023-02-13T01:12:30.538Z,17.55
2023-02-13T01:13:03.291Z,16.83
2023-02-13T01:13:35.136Z,15.45
2023-02-13T01:14:06.959Z,17.10
2023-02-13T01:14:39.725Z,15.80
2023-02-13T01:15:11.930Z,16.10
2023-02-13T01:15:44.313Z,15.60
2023-02-13T01:16:17.897Z,17.15
2023-02-13T01:16:51.231Z,15.70
2023-02-13T01:17:23.084Z,16.55
2023-02-13T01:17:57.342Z,16.33
2023-02-13T01:18:29.523Z,15.68
2023-02-13T01:19:01.337Z,16.05
2023-02-13T01:19:34.257Z,15.48
2023-02-13T01:20:07.096Z,16.33
2023-02-13T01:20:38.910Z,15.32
2023-02-13T01:21:20.319Z,16.05
2023-02-13T01:21:52.176Z,14.88
2023-02-13T01:22:23.998Z,16.23
2023-02-13T01:22:56.319Z,15.70
2023-02-13T01:23:31.946Z,15.80
2023-02-13T01:24:05.137Z,15.00
2023-02-13T01:24:36.952Z,14.35
2023-02-13T01:25:09.812Z,14.43
2023-02-13T01:25:42.471Z,16.70
2023-02-13T01:26:19.820Z,13.88
2023-02-13T01:26:51.593Z,15.88
2023-02-13T01:27:23.503Z,16.35
2023-02-13T01:27:56.228Z,14.73
2023-02-13T01:28:28.464Z,15.68
2023-02-13T01:29:00.763Z,14.63
2023-02-13T01:29:33.782Z,15.20
2023-02-13T01:30:10.420Z,15.90
2023-02-13T01:30:42.213Z,15.82
2023-02-13T01:31:15.435Z,15.98
2023-02-13T01:31:47.405Z,16.77
2023-02-13T01:32:20.922Z,15.80
2023-02-13T01:32:53.876Z,15.68
2023-02-13T01:33:27.557Z,15.73
2023-02-13T01:33:59.620Z,16.65
2023-02-13T01:34:32.827Z,15.95
2023-02-13T01:35:04.826Z,15.82
2023-02-13T01:35:39.271Z,16.17
2023-02-13T01:36:14.093Z,16.70
2023-02-13T01:36:51.926Z,15.27
2023-02-13T01:37:23.697Z,15.88
2023-02-13T01:37:56.492Z,15.75
2023-02-13T01:38:31.079Z,15.25
2023-02-13T01:39:04.337Z,14.98
2023-02-13T01:39:36.178Z,16.98
2023-02-13T01:40:11.802Z,17.45
2023-02-13T01:40:48.467Z,16.15
2023-02-13T01:41:20.432Z,16.05
2023-02-13T01:41:52.316Z,15.38
2023-02-13T01:42:28.252Z,16.40
2023-02-13T01:43:00.108Z,15.88
2023-02-13T01:43:54.910Z,15.93
2023-02-13T01:44:46.344Z,16.58
2023-02-13T01:45:26.841Z,14.80
2023-02-13T01:45:59.619Z,13.95
2023-02-13T01:46:37.924Z,15.00
2023-02-13T01:47:12.107Z,14.50
2023-02-13T01:47:49.504Z,14.00
2023-02-13T01:48:26.460Z,15.00
2023-02-13T01:49:03.747Z,14.43
2023-02-13T01:49:35.566Z,14.35
2023-02-13T01:50:12.515Z,15.48
2023-02-13T01:50:48.370Z,15.20
2023-02-13T01:51:24.681Z,14.10
2023-02-13T01:51:57.847Z,13.93
2023-02-13T01:52:30.091Z,15.27
2023-02-13T01:53:06.554Z,15.18
2023-02-13T01:53:44.195Z,14.55
2023-02-13T01:54:20.354Z,16.13
2023-02-13T01:54:53.214Z,13.93
2023-02-13T01:55:27.241Z,16.15
2023-02-13T01:56:03.349Z,14.50
2023-02-13T01:56:37.653Z,15.25
2023-02-13T01:57:13.972Z,16.10
2023-02-13T01:57:52.363Z,14.88
2023-02-13T01:58:27.749Z,16.00
2023-02-13T01:59:03.574Z,15.27
2023-02-13T01:59:41.759Z,15.27
2023-02-13T02:00:16.822Z,16.55
2023-02-13T02:00:50.007Z,14.52
2023-02-13T02:01:23.081Z,16.58
2023-02-13T02:01:56.260Z,14.98
2023-02-13T02:02:31.190Z,14.75
2023-02-13T02:03:09.738Z,15.10
2023-02-13T02:03:45.418Z,16.60
2023-02-13T02:04:22.412Z,14.85
2023-02-13T02:04:54.233Z,15.15
2023-02-13T02:05:28.700Z,15.93
2023-02-13T02:06:03.186Z,14.70
2023-02-13T02:06:38.143Z,15.05
2023-02-13T02:07:14.159Z,17.33
2023-02-13T02:07:47.268Z,14.77
2023-02-13T02:08:20.003Z,16.75
2023-02-13T02:08:54.073Z,15.07
2023-02-13T02:09:30.781Z,15.30
2023-02-13T02:10:06.946Z,15.20
2023-02-13T02:10:39.861Z,16.10
2023-02-13T02:11:18.465Z,15.00
2023-02-13T02:11:54.964Z,14.43
2023-02-13T02:12:32.168Z,14.65
2023-02-13T02:13:08.290Z,16.10
2023-02-13T02:13:40.267Z,16.15
2023-02-13T02:14:13.118Z,15.68
2023-02-13T02:14:45.312Z,16.85
2023-02-13T02:15:17.243Z,15.48
2023-02-13T02:15:51.766Z,15.68
2023-02-13T02:16:25.267Z,15.10
2023-02-13T02:16:57.573Z,16.17
2023-02-13T02:17:30.352Z,13.85
2023-02-13T02:18:02.152Z,16.38
2023-02-13T02:18:35.383Z,15.90
2023-02-13T02:19:16.000Z,16.00
2023-02-13T02:19:56.157Z,17.63
2023-02-13T02:21:05.181Z,15.93
2023-02-13T02:22:14.360Z,12.85
2023-02-13T02:23:24.710Z,14.70
2023-02-13T02:24:27.064Z,13.00
2023-02-13T02:25:44.055Z,14.35
2023-02-13T02:26:53.225Z,14.13
2023-02-13T02:28:09.803Z,12.55
2023-02-13T02:29:04.523Z,14.02
2023-02-13T02:30:17.466Z,14.20
2023-02-13T02:31:18.321Z,12.95
2023-02-13T02:32:19.865Z,12.98
2023-02-13T02:33:01.630Z,12.57
2023-02-13T02:33:42.628Z,11.45
2023-02-13T02:34:23.755Z,13.45
2023-02-13T02:35:04.137Z,11.95
2023-02-13T02:35:45.714Z,12.27
2023-02-13T02:36:37.684Z,13.98
2023-02-13T02:37:21.184Z,13.65
2023-02-13T02:38:08.274Z,13.50
2023-02-13T02:38:52.193Z,13.18
2023-02-13T02:39:30.797Z,12.55
2023-02-13T02:40:12.619Z,13.10
2023-02-13T02:40:59.011Z,12.98
2023-02-13T02:41:42.825Z,12.13
2023-02-13T02:42:25.896Z,12.98
2023-02-13T02:43:11.558Z,13.30
2023-02-13T02:43:55.291Z,13.05
2023-02-13T02:44:43.096Z,13.88
2023-02-13T02:45:23.318Z,14.60
2023-02-13T02:46:02.662Z,14.32
2023-02-13T02:46:38.720Z,16.70
2023-02-13T02:47:39.094Z,15.07
2023-02-13T02:48:38.422Z,15.82
2023-02-13T02:49:33.892Z,15.00
2023-02-13T02:50:23.362Z,15.07
2023-02-13T02:51:02.510Z,14.20
2023-02-13T02:51:41.137Z,15.43
2023-02-13T02:52:18.148Z,15.90
2023-02-13T02:53:07.111Z,14.55
2023-02-13T02:53:43.943Z,15.00
2023-02-13T02:54:40.715Z,15.70
2023-02-13T02:55:23.315Z,17.80
2023-02-13T02:56:00.508Z,14.60
2023-02-13T02:56:41.645Z,16.35
2023-02-13T02:57:18.207Z,15.00
2023-02-13T02:58:17.922Z,14.65
2023-02-13T02:59:14.514Z,13.75
2023-02-13T03:00:07.488Z,13.10
2023-02-13T03:01:01.065Z,14.38
2023-02-13T03:01:53.062Z,14.95
2023-02-13T03:02:45.149Z,14.05
2023-02-13T03:03:38.672Z,25.83
2023-02-13T03:04:36.172Z,20.60
2023-02-13T03:05:35.596Z,17.98
2023-02-13T03:06:15.761Z,15.90
2023-02-13T03:06:51.720Z,14.27
2023-02-13T03:07:23.730Z,15.88
2023-02-13T03:07:56.529Z,14.60
2023-02-13T03:08:44.601Z,16.20
2023-02-13T03:09:40.528Z,14.35
2023-02-13T03:10:37.553Z,14.77
2023-02-13T03:11:30.737Z,13.18
2023-02-13T03:12:20.519Z,14.18
2023-02-13T03:13:15.952Z,13.50
2023-02-13T03:13:50.852Z,13.55
2023-02-13T03:14:26.686Z,14.27
2023-02-13T03:14:58.545Z,13.75
2023-02-13T03:15:31.431Z,14.23
2023-02-13T03:16:37.091Z,15.40
2023-02-13T03:17:32.170Z,14.57
2023-02-13T03:18:24.621Z,13.75
2023-02-13T03:19:16.518Z,13.23
2023-02-13T03:20:16.435Z,12.20
2023-02-13T03:21:14.009Z,12.30
2023-02-13T03:22:10.296Z,13.93
2023-02-13T03:22:51.906Z,11.57
2023-02-13T03:23:32.997Z,12.25
2023-02-13T03:24:14.170Z,11.95
2023-02-13T03:24:53.026Z,13.00
2023-02-13T03:25:34.058Z,12.63
2023-02-13T03:26:33.165Z,12.25
2023-02-13T03:27:12.887Z,11.02
2023-02-13T03:28:09.457Z,12.25
2023-02-13T03:29:11.051Z,10.93
2023-02-13T03:30:08.227Z,10.93
2023-02-13T03:30:52.471Z,11.25
2023-02-13T03:31:33.696Z,11.98
2023-02-13T03:32:12.313Z,11.60
2023-02-13T03:32:49.965Z,10.15
2023-02-13T03:33:37.786Z,10.48
2023-02-13T03:34:13.635Z,13.63
2023-02-13T03:35:13.043Z,10.95
2023-02-13T03:36:09.477Z,11.32
2023-02-13T03:37:05.745Z,10.45
2023-02-13T03:37:55.881Z,11.30
2023-02-13T03:38:34.560Z,12.02
2023-02-13T03:39:12.428Z,11.38
2023-02-13T03:39:52.878Z,12.55
2023-02-13T03:40:35.816Z,10.25
2023-02-13T03:41:19.247Z,10.90
2023-02-13T03:41:55.951Z,12.73
2023-02-13T03:42:33.940Z,10.80
2023-02-13T03:43:12.376Z,12.35
2023-02-13T03:43:53.140Z,11.55
2023-02-13T03:44:32.531Z,12.80
2023-02-13T03:45:28.209Z,12.32
2023-02-13T03:46:02.461Z,12.60
2023-02-13T03:46:38.915Z,11.82
2023-02-13T03:47:14.946Z,11.50
2023-02-13T03:47:49.466Z,12.00
2023-02-13T03:48:44.298Z,13.20
2023-02-13T03:49:40.006Z,12.25
2023-02-13T03:50:13.883Z,10.75
2023-02-13T03:50:45.745Z,11.85
2023-02-13T03:51:23.656Z,11.52
2023-02-13T03:52:01.418Z,12.05
2023-02-13T03:52:39.699Z,11.40
2023-02-13T03:53:14.578Z,11.60
2023-02-13T03:53:51.829Z,13.80
2023-02-13T03:54:46.891Z,12.43
2023-02-13T03:55:40.403Z,10.90
2023-02-13T03:56:34.810Z,11.32
2023-02-13T03:57:25.035Z,10.88
2023-02-13T03:58:18.547Z,12.20
2023-02-13T03:59:10.973Z,10.48
2023-02-13T03:59:43.856Z,12.43
2023-02-13T04:00:17.602Z,11.30
2023-02-13T04:00:53.896Z,12.68
2023-02-13T04:01:29.939Z,12.68
2023-02-13T04:02:10.557Z,11.95
2023-02-13T04:02:51.316Z,11.43
2023-02-13T04:03:28.803Z,13.05
2023-02-13T04:04:08.905Z,11.07
2023-02-13T04:04:48.355Z,11.82
2023-02-13T04:05:25.561Z,11.75
2023-02-13T04:06:04.371Z,10.68
2023-02-13T04:06:43.545Z,12.40
2023-02-13T04:07:30.498Z,11.88
2023-02-13T04:08:02.447Z,13.15
2023-02-13T04:08:34.356Z,11.25
2023-02-13T04:09:07.202Z,12.45
2023-02-13T04:09:42.787Z,13.07
2023-02-13T04:10:16.890Z,11.40
2023-02-13T04:10:55.375Z,13.90
2023-02-13T04:11:35.348Z,11.88
2023-02-13T04:12:14.346Z,12.05
2023-02-13T04:12:54.011Z,12.85
2023-02-13T04:13:32.930Z,12.18
2023-02-13T04:14:11.720Z,12.50
2023-02-13T04:14:49.765Z,12.18
2023-02-13T04:15:27.671Z,13.93
2023-02-13T04:16:06.865Z,13.82
2023-02-13T04:16:42.448Z,11.85
2023-02-13T04:17:19.542Z,13.20
2023-02-13T04:17:56.603Z,12.60
2023-02-13T04:18:32.538Z,13.35
2023-02-13T04:19:06.448Z,13.10
2023-02-13T04:19:39.874Z,12.30
2023-02-13T04:20:12.130Z,13.15
2023-02-13T04:20:44.155Z,14.07
2023-02-13T04:21:16.972Z,13.65
2023-02-13T04:21:55.570Z,14.02
2023-02-13T04:22:28.321Z,12.80
2023-02-13T04:23:06.234Z,12.77
2023-02-13T04:23:38.118Z,13.38
2023-02-13T04:24:12.145Z,12.82
2023-02-13T04:24:44.000Z,13.90
2023-02-13T04:25:17.838Z,13.63
2023-02-13T04:25:53.432Z,13.57
2023-02-13T04:26:28.871Z,13.45
2023-02-13T04:27:00.742Z,15.20
2023-02-13T04:27:33.510Z,13.45
2023-02-13T04:28:05.840Z,12.18
2023-02-13T04:28:37.798Z,13.40
2023-02-13T04:29:10.955Z,13.45
2023-02-13T04:29:43.268Z,12.43
2023-02-13T04:30:15.427Z,12.48
2023-02-13T04:30:48.337Z,11.95
2023-02-13T04:31:20.292Z,11.15
2023-02-13T04:31:52.371Z,11.75
2023-02-13T04:32:25.263Z,10.32
2023-02-13T04:32:57.136Z,9.88
2023-02-13T04:33:30.280Z,10.90
2023-02-13T04:34:03.074Z,11.30
2023-02-13T04:34:35.036Z,10.80
2023-02-13T04:35:07.043Z,11.07
2023-02-13T04:35:39.850Z,10.98
2023-02-13T04:36:11.685Z,11.07
2023-02-13T04:36:43.537Z,11.75
2023-02-13T04:37:16.331Z,11.75
2023-02-13T04:37:49.159Z,11.82
2023-02-13T04:38:20.975Z,11.65
2023-02-13T04:38:52.865Z,12.10
2023-02-13T04:39:25.655Z,13.38
2023-02-13T04:39:57.438Z,12.70
2023-02-13T04:40:29.290Z,11.48
2023-02-13T04:41:02.121Z,12.15
2023-02-13T04:41:33.951Z,12.73
2023-02-13T04:42:05.819Z,11.98
2023-02-13T04:42:38.611Z,11.88
2023-02-13T04:43:10.431Z,13.05
2023-02-13T04:43:42.326Z,12.65
2023-02-13T04:44:15.128Z,13.65
2023-02-13T04:44:46.954Z,11.88
2023-02-13T04:45:18.782Z,12.10
2023-02-13T04:45:52.440Z,13.02
2023-02-13T04:46:24.412Z,10.70
2023-02-13T04:46:56.282Z,13.05
2023-02-13T04:47:29.055Z,11.32
2023-02-13T04:48:00.841Z,11.65
2023-02-13T04:48:34.036Z,11.10
2023-02-13T04:49:06.810Z,12.05
2023-02-13T04:49:38.633Z,11.23
2023-02-13T04:50:10.867Z,11.18
2023-02-13T04:50:43.663Z,10.85
2023-02-13T04:51:15.488Z,12.95
2023-02-13T04:51:47.247Z,12.50
2023-02-13T04:52:20.020Z,10.80
2023-02-13T04:52:54.453Z,10.85
2023-02-13T04:53:26.281Z,12.48
2023-02-13T04:53:59.040Z,10.45
2023-02-13T04:54:30.843Z,10.93
2023-02-13T04:55:02.672Z,10.20
2023-02-13T04:55:35.449Z,11.45
2023-02-13T04:56:07.526Z,11.80
2023-02-13T04:56:40.298Z,13.02
2023-02-13T04:57:12.154Z,12.27
2023-02-13T04:57:43.932Z,10.88
2023-02-13T04:58:15.751Z,11.60
2023-02-13T04:58:48.539Z,12.20
2023-02-13T04:59:20.358Z,12.10
2023-02-13T04:59:52.241Z,11.80
2023-02-13T05:00:27.083Z,11.43
2023-02-13T05:00:59.342Z,11.20
2023-02-13T05:01:31.429Z,11.98
2023-02-13T05:02:04.462Z,11.00
2023-02-13T05:02:37.771Z,12.32
2023-02-13T05:03:12.819Z,12.85
2023-02-13T05:03:47.015Z,11.40
2023-02-13T05:04:18.994Z,13.02
2023-02-13T05:04:50.887Z,10.20
2023-02-13T05:05:22.727Z,12.00
2023-02-13T05:05:55.487Z,12.20
2023-02-13T05:06:27.275Z,10.85
2023-02-13T05:06:59.182Z,12.20
2023-02-13T05:07:31.952Z,10.93
2023-02-13T05:08:04.539Z,11.93
2023-02-13T05:08:36.367Z,11.80
2023-02-13T05:09:09.369Z,12.02
2023-02-13T05:09:41.699Z,11.32
2023-02-13T05:10:13.775Z,11.10
2023-02-13T05:10:46.503Z,12.80
2023-02-13T05:11:18.291Z,12.38
2023-02-13T05:11:51.633Z,11.82
2023-02-13T05:12:24.397Z,11.60
2023-02-13T05:12:56.282Z,11.65
2023-02-13T05:13:28.394Z,11.70
2023-02-13T05:14:01.106Z,12.90
2023-02-13T05:14:32.881Z,11.90
2023-02-13T05:15:05.267Z,11.02
2023-02-13T05:15:38.070Z,11.55
2023-02-13T05:16:09.912Z,13.63
2023-02-13T05:16:41.717Z,11.07
2023-02-13T05:17:14.463Z,12.57
2023-02-13T05:17:46.824Z,12.45
2023-02-13T05:18:18.640Z,12.45
2023-02-13T05:18:54.823Z,11.75
2023-02-13T05:19:26.607Z,10.98
2023-02-13T05:19:59.066Z,12.88
2023-02-13T05:20:31.821Z,11.77
2023-02-13T05:21:22.698Z,13.13
2023-02-13T05:22:12.941Z,11.52
2023-02-13T05:23:03.813Z,12.10
2023-02-13T05:23:35.761Z,11.50
2023-02-13T05:24:07.741Z,11.68
2023-02-13T05:24:40.528Z,12.40
2023-02-13T05:25:12.487Z,13.00
2023-02-13T05:25:44.379Z,11.85
2023-02-13T05:26:17.227Z,11.75
2023-02-13T05:26:49.039Z,13.27
2023-02-13T05:27:20.968Z,12.65
2023-02-13T05:27:53.683Z,14.30
2023-02-13T05:28:52.308Z,12.93
2023-02-13T05:29:24.135Z,11.90
2023-02-13T05:29:55.925Z,12.55
2023-02-13T05:30:27.975Z,14.02
2023-02-13T05:31:01.231Z,13.07
2023-02-13T05:31:33.451Z,13.43
2023-02-13T05:32:06.388Z,12.30
2023-02-13T05:32:38.323Z,13.20
2023-02-13T05:33:10.117Z,14.35
2023-02-13T05:33:41.911Z,14.85
2023-02-13T05:34:16.344Z,13.85
2023-02-13T05:34:48.131Z,13.82
2023-02-13T05:35:19.899Z,14.20
2023-02-13T05:35:52.685Z,13.57
2023-02-13T05:36:24.544Z,14.55
2023-02-13T05:36:56.373Z,13.05
2023-02-13T05:37:29.118Z,14.15
2023-02-13T05:38:00.894Z,14.98
2023-02-13T05:38:32.735Z,12.70
2023-02-13T05:39:05.539Z,14.23
2023-02-13T05:39:37.367Z,14.02
2023-02-13T05:40:10.491Z,13.02
2023-02-13T05:40:43.300Z,14.35
2023-02-13T05:41:15.159Z,12.80
2023-02-13T05:41:48.055Z,13.25
2023-02-13T05:42:20.794Z,14.35
2023-02-13T05:42:55.067Z,13.27
2023-02-13T05:43:26.903Z,14.00
2023-02-13T05:43:59.691Z,12.02
2023-02-13T05:44:31.847Z,11.93
2023-02-13T05:45:03.967Z,14.35
2023-02-13T05:45:36.740Z,13.75
2023-02-13T05:46:09.894Z,13.65
2023-02-13T05:46:42.888Z,12.52
2023-02-13T05:47:15.793Z,15.38
2023-02-13T05:47:47.600Z,13.45
2023-02-13T05:48:19.416Z,14.13
2023-02-13T05:48:53.190Z,12.77
2023-02-13T05:49:26.433Z,14.07
2023-02-13T05:49:59.211Z,12.73
2023-02-13T05:50:30.980Z,13.45
2023-02-13T05:51:03.164Z,13.65
2023-02-13T05:51:35.937Z,12.40
2023-02-13T05:52:07.755Z,15.35
2023-02-13T05:52:39.551Z,14.27
2023-02-13T05:53:12.343Z,15.27
2023-02-13T05:53:44.119Z,13.63
2023-02-13T05:54:17.036Z,13.13
2023-02-13T05:54:48.860Z,12.77
2023-02-13T05:55:20.669Z,14.43
2023-02-13T05:55:53.585Z,13.18
2023-02-13T05:56:25.487Z,15.02
2023-02-13T05:56:57.337Z,15.52
2023-02-13T05:57:30.082Z,16.35
2023-02-13T05:58:01.903Z,15.07
2023-02-13T05:58:34.318Z,15.05
2023-02-13T05:59:06.792Z,14.98
2023-02-13T05:59:39.595Z,15.90
2023-02-13T06:00:12.450Z,15.52
2023-02-13T06:00:44.386Z,13.50
2023-02-13T06:01:17.206Z,15.45
2023-02-13T06:01:48.983Z,15.60
2023-02-13T06:02:21.788Z,15.27
2023-02-13T06:02:53.615Z,15.32
2023-02-13T06:03:26.158Z,15.00
2023-02-13T06:04:00.503Z,13.43
2023-02-13T06:04:35.230Z,15.02
2023-02-13T06:05:07.371Z,14.90
2023-02-13T06:05:40.162Z,15.25
2023-02-13T06:06:11.951Z,15.98
2023-02-13T06:06:45.425Z,13.88
2023-02-13T06:07:17.601Z,15.63
2023-02-13T06:07:49.378Z,14.77
2023-02-13T06:08:22.414Z,16.20
2023-02-13T06:08:54.497Z,13.30
2023-02-13T06:09:27.376Z,14.45
2023-02-13T06:09:59.616Z,13.32
2023-02-13T06:10:31.449Z,14.70
2023-02-13T06:11:04.695Z,14.93
2023-02-13T06:11:36.503Z,14.60
2023-02-13T06:12:09.328Z,14.63
2023-02-13T06:12:42.623Z,14.95
2023-02-13T06:13:14.911Z,14.10
2023-02-13T06:13:47.969Z,13.90
2023-02-13T06:14:19.801Z,13.50
2023-02-13T06:14:51.633Z,13.52
2023-02-13T06:15:24.561Z,14.55
2023-02-13T06:15:56.550Z,15.25
2023-02-13T06:16:30.927Z,15.25
2023-02-13T06:17:03.698Z,15.20
2023-02-13T06:17:35.527Z,14.63
2023-02-13T06:18:07.861Z,13.93
2023-02-13T06:18:39.763Z,15.35
2023-02-13T06:19:12.523Z,14.02
2023-02-13T06:19:45.665Z,15.00
2023-02-13T06:20:17.683Z,14.50
2023-02-13T06:20:50.630Z,14.50
2023-02-13T06:21:22.718Z,14.98
2023-02-13T06:21:55.518Z,15.32
2023-02-13T06:22:27.400Z,12.77
2023-02-13T06:22:59.203Z,14.15
2023-02-13T06:23:32.258Z,14.75
2023-02-13T06:24:04.654Z,12.45
2023-02-13T06:24:37.454Z,13.52
2023-02-13T06:25:09.296Z,12.80
2023-02-13T06:25:42.237Z,15.43
2023-02-13T06:26:14.148Z,14.15
2023-02-13T06:26:45.982Z,15.00
2023-02-13T06:27:18.748Z,15.02
2023-02-13T06:27:50.601Z,15.10
2023-02-13T06:28:22.608Z,15.05
2023-02-13T06:28:55.402Z,14.35
2023-02-13T06:29:27.231Z,14.90
2023-02-13T06:29:59.045Z,14.65
2023-02-13T06:30:32.566Z,14.68
2023-02-13T06:31:04.951Z,14.75
2023-02-13T06:31:37.940Z,14.50
2023-02-13T06:32:09.772Z,15.52
2023-02-13T06:32:41.772Z,15.40
2023-02-13T06:33:14.733Z,14.73
2023-02-13T06:33:46.548Z,14.05
2023-02-13T06:34:18.361Z,14.95
2023-02-13T06:34:52.514Z,14.40
2023-02-13T06:35:24.432Z,15.43
2023-02-13T06:35:56.244Z,16.42
2023-02-13T06:36:29.051Z,15.75
2023-02-13T06:37:00.827Z,15.50
2023-02-13T06:37:32.939Z,15.60
2023-02-13T06:38:05.764Z,15.27
2023-02-13T06:38:37.583Z,15.75
2023-02-13T06:39:10.184Z,14.63
2023-02-13T06:39:42.958Z,14.00
2023-02-13T06:40:15.968Z,16.90
2023-02-13T06:40:48.244Z,14.80
2023-02-13T06:41:21.028Z,16.05
2023-02-13T06:41:52.840Z,15.50
2023-02-13T06:42:24.865Z,14.73
2023-02-13T06:42:57.631Z,15.90
2023-02-13T06:43:29.479Z,16.63
2023-02-13T06:44:02.247Z,15.40
2023-02-13T06:44:34.070Z,16.05
2023-02-13T06:45:07.111Z,14.40
2023-02-13T06:45:39.940Z,15.35
2023-02-13T06:46:11.891Z,15.35
2023-02-13T06:46:43.761Z,15.30
2023-02-13T06:47:16.661Z,15.45
2023-02-13T06:47:48.836Z,15.35
2023-02-13T06:48:20.782Z,16.33
2023-02-13T06:48:53.621Z,15.82
2023-02-13T06:49:25.540Z,16.10
2023-02-13T06:49:58.713Z,16.88
2023-02-13T06:50:31.560Z,17.83
2023-02-13T06:51:03.701Z,16.98
2023-02-13T06:51:36.667Z,15.10
2023-02-13T06:52:08.578Z,16.15
2023-02-13T06:52:45.462Z,15.52
2023-02-13T06:53:18.250Z,15.13
2023-02-13T06:53:50.490Z,16.33
2023-02-13T06:54:31.559Z,15.20
2023-02-13T06:55:13.077Z,14.15
2023-02-13T06:55:45.875Z,14.77
2023-02-13T06:56:17.717Z,15.70
2023-02-13T06:56:49.496Z,14.50
2023-02-13T06:57:22.271Z,14.55
2023-02-13T06:57:54.097Z,13.98
2023-02-13T06:58:26.330Z,14.18
2023-02-13T06:58:59.156Z,15.05
2023-02-13T06:59:30.937Z,15.32
2023-02-13T07:00:05.798Z,15.18
2023-02-13T07:00:38.642Z,14.50
2023-02-13T07:01:10.625Z,15.77
2023-02-13T07:01:42.499Z,15.20
2023-02-13T07:02:15.273Z,15.07
2023-02-13T07:02:48.048Z,13.60
2023-02-13T07:03:20.938Z,14.95
2023-02-13T07:03:52.863Z,13.65
2023-02-13T07:04:25.906Z,14.60
2023-02-13T07:04:59.167Z,15.18
2023-02-13T07:05:32.122Z,15.10
2023-02-13T07:06:04.233Z,15.00
2023-02-13T07:06:36.060Z,16.65
2023-02-13T07:07:08.824Z,15.93
2023-02-13T07:07:42.152Z,18.20
2023-02-13T07:08:14.093Z,17.20
2023-02-13T07:08:47.257Z,16.70
2023-02-13T07:09:19.045Z,17.50
2023-02-13T07:09:52.023Z,16.15
2023-02-13T07:10:24.143Z,16.08
2023-02-13T07:10:57.233Z,14.73
2023-02-13T07:11:29.199Z,15.25
2023-02-13T07:12:03.554Z,14.98
2023-02-13T07:12:36.847Z,15.50
2023-02-13T07:13:09.293Z,17.30
2023-02-13T07:13:43.744Z,16.42
2023-02-13T07:14:15.541Z,15.73
2023-02-13T07:14:47.376Z,16.70
2023-02-13T07:15:20.340Z,18.63
2023-02-13T07:15:52.409Z,17.17
2023-02-13T07:16:24.355Z,15.80
2023-02-13T07:16:57.798Z,15.95
2023-02-13T07:17:30.026Z,14.88
2023-02-13T07:18:03.321Z,15.85
2023-02-13T07:18:37.028Z,15.43
2023-02-13T07:19:10.354Z,16.40
2023-02-13T07:19:42.128Z,16.27
2023-02-13T07:20:15.532Z,16.17
2023-02-13T07:20:48.280Z,16.33
2023-02-13T07:21:20.072Z,18.13
2023-02-13T07:21:51.912Z,15.88
2023-02-13T07:22:24.723Z,17.30
2023-02-13T07:22:58.829Z,16.00
2023-02-13T07:23:30.635Z,15.82
2023-02-13T07:24:03.538Z,14.85
2023-02-13T07:24:35.434Z,16.02
2023-02-13T07:25:07.795Z,16.27
2023-02-13T07:25:40.626Z,15.90
2023-02-13T07:26:12.465Z,14.30
2023-02-13T07:26:44.293Z,14.88
2023-02-13T07:27:17.276Z,16.00
2023-02-13T07:27:49.100Z,14.55
2023-02-13T07:28:21.873Z,16.35
2023-02-13T07:29:09.146Z,15.15
2023-02-13T07:29:43.439Z,15.07
2023-02-13T07:30:15.761Z,14.38
2023-02-13T07:30:48.520Z,15.88
2023-02-13T07:31:20.452Z,15.15
2023-02-13T07:31:53.283Z,17.02
2023-02-13T07:32:25.690Z,15.68
2023-02-13T07:32:59.702Z,17.83
2023-02-13T07:33:32.640Z,14.20
2023-02-13T07:34:04.444Z,16.52
2023-02-13T07:34:37.223Z,16.60
2023-02-13T07:35:09.168Z,17.23
2023-02-13T07:35:47.740Z,16.48
2023-02-13T07:36:19.573Z,16.30
2023-02-13T07:36:52.437Z,16.60
2023-02-13T07:37:24.328Z,17.45
2023-02-13T07:37:57.173Z,15.35
2023-02-13T07:38:29.161Z,16.70